createdAt,value
2019-02-03T00:01:40.035Z,51.10
2019-02-03T00:04:08.731Z,56.40
2019-02-03T00:06:37.274Z,50.03
2019-02-03T00:09:10.211Z,51.88
2019-02-03T00:11:38.799Z,51.40
2019-02-03T00:14:07.349Z,48.10
2019-02-03T00:16:35.891Z,53.05
2019-02-03T00:19:04.605Z,51.73
2019-02-03T00:21:33.430Z,54.88
2019-02-03T00:24:02.093Z,50.25
2019-02-03T00:26:30.761Z,56.42
2019-02-03T00:28:59.296Z,50.63
2019-02-03T00:31:27.942Z,52.25
2019-02-03T00:33:56.473Z,52.78
2019-02-03T00:36:25.083Z,53.35
2019-02-03T00:38:53.671Z,50.65
2019-02-03T00:41:22.324Z,49.48
2019-02-03T00:43:50.877Z,53.20
2019-02-03T00:46:19.514Z,52.95
2019-02-03T00:48:48.510Z,53.17
2019-02-03T00:51:17.151Z,53.15
2019-02-03T00:53:45.779Z,54.98
2019-02-03T00:56:14.508Z,54.30
2019-02-03T00:58:43.123Z,57.05
2019-02-03T01:01:11.776Z,53.40
2019-02-03T01:03:40.436Z,58.58
2019-02-03T01:06:09.164Z,54.75
2019-02-03T01:08:37.810Z,60.88
2019-02-03T01:11:06.498Z,54.93
2019-02-03T01:13:35.043Z,53.92
2019-02-03T01:16:04.006Z,57.67
2019-02-03T01:18:32.572Z,57.60
2019-02-03T01:21:02.398Z,55.90
2019-02-03T01:23:30.966Z,59.75
2019-02-03T01:25:59.443Z,55.65
2019-02-03T01:28:28.153Z,55.67
2019-02-03T01:30:56.817Z,57.78
2019-02-03T01:33:25.304Z,59.63
2019-02-03T01:35:53.885Z,58.17
2019-02-03T01:38:22.422Z,58.52
2019-02-03T01:40:51.061Z,57.80
2019-02-03T01:43:19.602Z,59.53
2019-02-03T01:45:48.185Z,60.50
2019-02-03T01:48:16.801Z,60.83
2019-02-03T01:50:45.396Z,63.95
2019-02-03T01:53:14.699Z,63.63
2019-02-03T01:55:43.266Z,64.10
2019-02-03T01:58:11.851Z,69.67
2019-02-03T02:00:40.822Z,68.65
2019-02-03T02:03:09.408Z,71.80
2019-02-03T02:05:37.995Z,66.20
2019-02-03T02:08:06.644Z,79.65
2019-02-03T02:10:35.801Z,58.02
2019-02-03T02:13:04.517Z,55.12
2019-02-03T02:15:33.475Z,54.23
2019-02-03T02:18:02.134Z,54.95
2019-02-03T02:20:30.765Z,54.88
2019-02-03T02:22:59.300Z,55.85
2019-02-03T02:25:27.968Z,56.13
2019-02-03T02:27:56.552Z,56.25
2019-02-03T02:30:26.855Z,56.88
2019-02-03T02:32:55.625Z,59.18
2019-02-03T02:35:24.283Z,51.98
2019-02-03T02:38:05.814Z,69.10
2019-02-03T02:40:25.451Z,63.05
2019-02-03T02:42:54.515Z,64.20
2019-02-03T02:45:23.336Z,58.70
2019-02-03T02:47:51.971Z,48.50
2019-02-03T02:50:39.000Z,55.63
2019-02-03T02:53:07.535Z,50.88
2019-02-03T02:55:36.081Z,51.40
2019-02-03T02:58:04.876Z,47.67
2019-02-03T03:00:33.482Z,47.85
2019-02-03T03:03:02.187Z,48.35
2019-02-03T03:05:30.852Z,44.00
2019-02-03T03:07:59.847Z,43.33
2019-02-03T03:10:28.487Z,43.70
2019-02-03T03:12:57.173Z,42.43
2019-02-03T03:15:25.814Z,40.23
2019-02-03T03:17:54.458Z,38.92
2019-02-03T03:20:23.199Z,37.80
2019-02-03T03:22:52.282Z,38.35
2019-02-03T03:25:23.938Z,37.08
2019-02-03T03:27:52.442Z,36.45
2019-02-03T03:30:27.182Z,34.03
2019-02-03T03:32:56.683Z,36.08
2019-02-03T03:35:26.254Z,35.50
2019-02-03T03:37:54.829Z,33.18
2019-02-03T03:40:26.017Z,34.15
2019-02-03T03:42:54.646Z,37.17
2019-02-03T03:45:23.439Z,33.40
2019-02-03T03:47:52.167Z,35.17
2019-02-03T03:50:20.902Z,32.55
2019-02-03T03:52:49.616Z,31.73
2019-02-03T03:55:18.223Z,31.97
2019-02-03T03:57:46.940Z,31.77
2019-02-03T04:00:18.274Z,32.73
2019-02-03T04:02:47.318Z,35.28
2019-02-03T04:05:16.057Z,33.95
2019-02-03T04:07:44.720Z,36.38
2019-02-03T04:10:16.921Z,38.35
2019-02-03T04:12:45.503Z,36.35
2019-02-03T04:15:17.419Z,38.67
2019-02-03T04:17:46.118Z,39.73
2019-02-03T04:20:29.026Z,37.03
2019-02-03T04:22:58.051Z,37.45
2019-02-03T04:25:26.707Z,37.55
2019-02-03T04:27:55.922Z,33.83
2019-02-03T04:30:26.451Z,36.83
2019-02-03T04:32:55.179Z,36.38
2019-02-03T04:35:23.748Z,34.20
2019-02-03T04:37:52.379Z,35.50
2019-02-03T04:40:22.291Z,34.50
2019-02-03T04:42:50.858Z,36.88
2019-02-03T04:45:22.409Z,39.05
2019-02-03T04:47:49.914Z,36.70
2019-02-03T04:50:20.552Z,39.70
2019-02-03T04:52:49.292Z,38.20
2019-02-03T04:55:20.482Z,34.53
2019-02-03T04:57:49.433Z,33.38
2019-02-03T05:00:24.707Z,33.15
2019-02-03T05:02:53.749Z,32.40
2019-02-03T05:05:22.494Z,33.98
2019-02-03T05:07:51.194Z,35.88
2019-02-03T05:10:20.499Z,32.28
2019-02-03T05:12:49.123Z,29.20
2019-02-03T05:15:21.024Z,33.58
2019-02-03T05:17:49.804Z,33.75
2019-02-03T05:20:20.361Z,33.33
2019-02-03T05:22:48.990Z,30.23
2019-02-03T05:25:17.575Z,32.03
2019-02-03T05:27:46.373Z,30.40
2019-02-03T05:30:18.045Z,30.95
2019-02-03T05:32:46.611Z,29.07
2019-02-03T05:35:15.314Z,29.72
2019-02-03T05:37:44.044Z,29.92
2019-02-03T05:40:15.130Z,29.40
2019-02-03T05:42:43.762Z,29.55
2019-02-03T05:45:21.023Z,28.35
2019-02-03T05:47:50.571Z,28.95
2019-02-03T05:50:25.897Z,28.40
2019-02-03T05:52:54.481Z,28.60
2019-02-03T05:55:23.234Z,31.17
2019-02-03T05:57:51.858Z,30.23
2019-02-03T06:00:39.087Z,29.82
2019-02-03T06:03:07.735Z,31.25
2019-02-03T06:05:36.319Z,29.18
2019-02-03T06:08:05.138Z,28.90
2019-02-03T06:10:33.764Z,29.27
2019-02-03T06:13:02.512Z,28.98
2019-02-03T06:15:31.133Z,28.45
2019-02-03T06:17:59.725Z,26.75
2019-02-03T06:20:28.400Z,27.60
2019-02-03T06:22:56.996Z,26.70
2019-02-03T06:25:25.557Z,28.30
2019-02-03T06:27:54.239Z,27.37
2019-02-03T06:30:31.374Z,28.15
2019-02-03T06:32:59.949Z,25.30
2019-02-03T06:35:28.539Z,26.75
2019-02-03T06:37:57.153Z,25.70
2019-02-03T06:40:25.846Z,26.00
2019-02-03T06:42:54.404Z,26.10
2019-02-03T06:45:40.754Z,26.17
2019-02-03T06:48:11.058Z,25.15
2019-02-03T06:50:39.916Z,24.37
2019-02-03T06:53:08.514Z,23.27
2019-02-03T06:55:37.171Z,24.30
2019-02-03T06:58:05.726Z,23.57
2019-02-03T07:00:34.313Z,22.07
2019-02-03T07:03:02.968Z,22.15
2019-02-03T07:05:31.618Z,19.45
2019-02-03T07:08:00.228Z,18.85
2019-02-03T07:10:28.933Z,19.95
2019-02-03T07:12:57.491Z,20.85
2019-02-03T07:15:26.036Z,21.50
2019-02-03T07:17:54.593Z,21.33
2019-02-03T07:20:23.278Z,20.10
2019-02-03T07:22:51.815Z,21.37
2019-02-03T07:25:20.358Z,19.15
2019-02-03T07:27:48.945Z,20.00
2019-02-03T07:30:26.328Z,19.40
2019-02-03T07:32:55.118Z,19.67
2019-02-03T07:35:23.772Z,20.72
2019-02-03T07:37:52.310Z,20.27
2019-02-03T07:40:21.813Z,20.05
2019-02-03T07:42:50.452Z,21.17
2019-02-03T07:45:19.147Z,18.52
2019-02-03T07:47:47.738Z,19.75
2019-02-03T07:50:17.165Z,17.40
2019-02-03T07:52:45.734Z,19.00
2019-02-03T07:55:15.515Z,18.25
2019-02-03T07:57:44.197Z,17.90
2019-02-03T08:00:20.361Z,17.37
2019-02-03T08:02:49.567Z,17.17
2019-02-03T08:05:18.350Z,16.93
2019-02-03T08:07:46.874Z,18.77
2019-02-03T08:10:25.578Z,17.92
2019-02-03T08:12:48.871Z,17.00
2019-02-03T08:15:19.214Z,16.65
2019-02-03T08:17:47.916Z,16.90
2019-02-03T08:20:22.101Z,14.65
2019-02-03T08:22:51.929Z,16.15
2019-02-03T08:25:20.551Z,15.88
2019-02-03T08:27:50.874Z,16.70
2019-02-03T08:30:30.952Z,17.27
2019-02-03T08:32:59.553Z,16.12
2019-02-03T08:35:28.262Z,17.80
2019-02-03T08:37:57.236Z,17.12
2019-02-03T08:40:36.612Z,16.57
2019-02-03T08:42:59.620Z,14.78
2019-02-03T08:45:28.438Z,15.50
2019-02-03T08:47:57.138Z,16.93
2019-02-03T08:50:25.944Z,17.80
2019-02-03T08:52:54.925Z,16.17
2019-02-03T08:55:24.601Z,16.40
2019-02-03T08:57:53.064Z,16.32
2019-02-03T09:00:34.805Z,16.77
2019-02-03T09:03:03.352Z,17.35
2019-02-03T09:05:32.124Z,15.40
2019-02-03T09:08:00.817Z,16.50
2019-02-03T09:10:29.450Z,15.30
2019-02-03T09:12:59.567Z,15.85
2019-02-03T09:15:31.202Z,15.68
2019-02-03T09:17:59.793Z,13.98
2019-02-03T09:20:31.475Z,15.32
2019-02-03T09:23:00.228Z,15.65
2019-02-03T09:25:28.906Z,17.02
2019-02-03T09:28:00.319Z,15.60
2019-02-03T09:30:34.300Z,15.40
2019-02-03T09:33:03.830Z,16.15
2019-02-03T09:35:35.423Z,13.98
2019-02-03T09:38:04.834Z,15.50
2019-02-03T09:40:35.700Z,13.22
2019-02-03T09:43:05.334Z,14.70
2019-02-03T09:45:34.004Z,13.68
2019-02-03T09:48:02.618Z,15.38
2019-02-03T09:50:31.957Z,14.07
2019-02-03T09:53:02.545Z,15.20
2019-02-03T09:55:32.661Z,16.50
2019-02-03T09:58:01.814Z,16.32
2019-02-03T10:00:33.566Z,17.15
2019-02-03T10:03:03.517Z,15.30
2019-02-03T10:05:37.106Z,16.45
2019-02-03T10:08:05.682Z,15.15
2019-02-03T10:10:39.804Z,14.43
2019-02-03T10:13:11.326Z,15.20
2019-02-03T10:15:39.941Z,14.90
2019-02-03T10:18:10.117Z,16.30
2019-02-03T10:20:38.757Z,15.08
2019-02-03T10:23:11.699Z,14.13
2019-02-03T10:25:40.429Z,15.43
2019-02-03T10:28:09.027Z,14.03
2019-02-03T10:30:37.686Z,14.10
2019-02-03T10:33:06.438Z,16.07
2019-02-03T10:35:35.876Z,13.62
2019-02-03T10:38:06.392Z,13.72
2019-02-03T10:40:39.288Z,13.10
2019-02-03T10:43:08.814Z,14.13
2019-02-03T10:45:37.847Z,14.28
2019-02-03T10:48:06.993Z,14.70
2019-02-03T10:50:38.607Z,16.00
2019-02-03T10:53:10.675Z,15.20
2019-02-03T10:55:39.310Z,15.15
2019-02-03T10:58:08.494Z,14.93
2019-02-03T11:00:40.213Z,15.18
2019-02-03T11:03:08.947Z,15.80
2019-02-03T11:05:41.645Z,15.40
2019-02-03T11:08:12.195Z,14.28
2019-02-03T11:10:40.903Z,16.02
2019-02-03T11:13:09.645Z,15.10
2019-02-03T11:15:38.274Z,13.15
2019-02-03T11:18:07.322Z,14.45
2019-02-03T11:20:36.357Z,14.20
2019-02-03T11:23:05.460Z,14.15
2019-02-03T11:25:34.207Z,14.85
2019-02-03T11:28:03.003Z,14.58
2019-02-03T11:30:31.980Z,16.00
2019-02-03T11:33:05.749Z,15.75
2019-02-03T11:35:33.243Z,15.15
2019-02-03T11:38:03.399Z,16.45
2019-02-03T11:40:38.228Z,15.55
2019-02-03T11:43:08.929Z,15.35
2019-02-03T11:45:41.245Z,15.78
2019-02-03T11:48:16.159Z,15.68
2019-02-03T11:50:46.646Z,13.98
2019-02-03T11:53:18.341Z,14.68
2019-02-03T11:55:46.920Z,16.62
2019-02-03T11:58:15.623Z,16.12
2019-02-03T12:00:44.424Z,16.75
2019-02-03T12:03:13.061Z,16.23
2019-02-03T12:05:41.823Z,18.90
2019-02-03T12:08:10.557Z,16.97
2019-02-03T12:10:39.113Z,18.40
2019-02-03T12:13:08.777Z,20.15
2019-02-03T12:15:37.859Z,17.37
2019-02-03T12:18:09.551Z,17.67
2019-02-03T12:20:38.177Z,16.40
2019-02-03T12:23:06.987Z,18.62
2019-02-03T12:25:38.844Z,17.57
2019-02-03T12:28:07.988Z,17.95
2019-02-03T12:30:40.460Z,16.85
2019-02-03T12:33:09.112Z,15.38
2019-02-03T12:35:37.786Z,17.17
2019-02-03T12:38:10.206Z,17.45
2019-02-03T12:40:42.337Z,16.12
2019-02-03T12:43:11.028Z,16.35
2019-02-03T12:45:39.839Z,17.48
2019-02-03T12:48:09.521Z,17.37
2019-02-03T12:50:38.256Z,17.15
2019-02-03T12:53:07.445Z,17.15
2019-02-03T12:55:36.377Z,17.92
2019-02-03T12:58:05.970Z,17.02
2019-02-03T13:00:37.102Z,17.55
2019-02-03T13:03:07.952Z,19.55
2019-02-03T13:05:36.836Z,18.82
2019-02-03T13:08:06.479Z,19.32
2019-02-03T13:10:36.974Z,18.57
2019-02-03T13:13:07.104Z,18.60
2019-02-03T13:15:43.059Z,16.85
2019-02-03T13:18:15.248Z,17.85
2019-02-03T13:20:44.180Z,17.27
2019-02-03T13:23:13.209Z,18.20
2019-02-03T13:25:42.220Z,16.77
2019-02-03T13:28:11.128Z,20.05
2019-02-03T13:30:45.378Z,17.27
2019-02-03T13:33:15.851Z,18.45
2019-02-03T13:35:44.789Z,18.17
2019-02-03T13:38:13.686Z,17.82
2019-02-03T13:40:42.626Z,16.10
2019-02-03T13:43:11.653Z,17.65
2019-02-03T13:45:40.556Z,18.75
2019-02-03T13:48:10.043Z,17.65
2019-02-03T13:50:39.179Z,17.48
2019-02-03T13:53:09.511Z,17.52
2019-02-03T13:55:38.186Z,16.90
2019-02-03T13:58:07.033Z,16.90
2019-02-03T14:00:41.898Z,15.43
2019-02-03T14:03:13.691Z,17.55
2019-02-03T14:05:42.491Z,17.45
2019-02-03T14:08:11.428Z,16.90
2019-02-03T14:10:40.886Z,16.30
2019-02-03T14:13:09.944Z,16.95
2019-02-03T14:15:38.704Z,15.93
2019-02-03T14:18:07.503Z,16.75
2019-02-03T14:20:36.435Z,16.45
2019-02-03T14:23:05.289Z,15.63
2019-02-03T14:25:34.274Z,16.70
2019-02-03T14:28:03.083Z,17.40
2019-02-03T14:30:40.785Z,17.42
2019-02-03T14:33:09.109Z,17.30
2019-02-03T14:35:37.908Z,16.82
2019-02-03T14:38:07.051Z,17.25
2019-02-03T14:40:38.578Z,18.07
2019-02-03T14:43:07.489Z,16.35
2019-02-03T14:45:36.142Z,17.05
2019-02-03T14:48:05.614Z,18.35
2019-02-03T14:50:34.775Z,19.05
2019-02-03T14:53:06.709Z,18.10
2019-02-03T14:55:38.138Z,17.70
2019-02-03T14:58:07.400Z,19.23
2019-02-03T15:00:39.310Z,17.07
2019-02-03T15:03:11.206Z,18.48
2019-02-03T15:05:40.087Z,16.20
2019-02-03T15:08:09.035Z,16.45
2019-02-03T15:10:37.812Z,17.90
2019-02-03T15:13:14.558Z,17.80
2019-02-03T15:15:40.781Z,17.77
2019-02-03T15:18:09.540Z,17.73
2019-02-03T15:20:38.454Z,17.05
2019-02-03T15:23:07.406Z,15.93
2019-02-03T15:25:37.611Z,17.92
2019-02-03T15:28:10.501Z,16.50
2019-02-03T15:30:45.181Z,16.27
2019-02-03T15:33:16.818Z,16.77
2019-02-03T15:35:45.588Z,16.60
2019-02-03T15:38:14.499Z,14.23
2019-02-03T15:40:43.571Z,17.25
2019-02-03T15:43:12.195Z,19.20
2019-02-03T15:45:40.854Z,16.65
2019-02-03T15:48:09.757Z,15.75
2019-02-03T15:50:38.377Z,17.20
2019-02-03T15:53:07.586Z,15.85
2019-02-03T15:55:38.695Z,16.40
2019-02-03T15:58:12.886Z,17.80
2019-02-03T16:00:47.406Z,14.70
2019-02-03T16:03:16.320Z,15.75
2019-02-03T16:05:45.193Z,18.52
2019-02-03T16:08:18.188Z,15.08
2019-02-03T16:10:47.573Z,13.98
2019-02-03T16:13:17.148Z,17.23
2019-02-03T16:15:45.942Z,17.40
2019-02-03T16:18:14.865Z,16.70
2019-02-03T16:20:44.023Z,15.95
2019-02-03T16:23:12.905Z,15.78
2019-02-03T16:25:43.474Z,17.65
2019-02-03T16:28:12.376Z,19.98
2019-02-03T16:30:44.613Z,16.25
2019-02-03T16:33:14.740Z,17.60
2019-02-03T16:35:43.682Z,18.20
2019-02-03T16:38:22.747Z,18.55
2019-02-03T16:40:44.898Z,17.75
2019-02-03T16:43:13.899Z,15.83
2019-02-03T16:45:43.702Z,18.12
2019-02-03T16:48:13.224Z,17.20
2019-02-03T16:50:42.075Z,17.98
2019-02-03T16:53:11.674Z,16.40
2019-02-03T16:55:40.548Z,14.90
2019-02-03T16:58:10.875Z,16.02
2019-02-03T17:00:39.955Z,16.95
2019-02-03T17:03:09.801Z,15.90
2019-02-03T17:05:38.783Z,16.48
2019-02-03T17:08:09.398Z,17.32
2019-02-03T17:10:38.592Z,15.65
2019-02-03T17:13:07.474Z,18.25
2019-02-03T17:15:45.399Z,15.75
2019-02-03T17:18:17.178Z,17.10
2019-02-03T17:20:47.475Z,19.00
2019-02-03T17:23:16.969Z,18.45
2019-02-03T17:25:48.634Z,18.20
2019-02-03T17:28:17.882Z,18.65
2019-02-03T17:30:48.203Z,17.67
2019-02-03T17:33:18.532Z,19.95
2019-02-03T17:35:54.418Z,18.20
2019-02-03T17:38:21.549Z,16.73
2019-02-03T17:40:51.435Z,17.20
2019-02-03T17:43:20.149Z,15.75
2019-02-03T17:45:49.235Z,14.47
2019-02-03T17:48:18.149Z,18.30
2019-02-03T17:50:48.002Z,15.45
2019-02-03T17:53:17.210Z,14.90
2019-02-03T17:55:48.229Z,17.35
2019-02-03T17:58:17.000Z,17.62
2019-02-03T18:00:48.177Z,18.15
2019-02-03T18:03:17.324Z,17.35
2019-02-03T18:05:47.297Z,17.80
2019-02-03T18:08:17.287Z,18.32
2019-02-03T18:10:46.468Z,15.50
2019-02-03T18:13:15.528Z,16.23
2019-02-03T18:15:44.156Z,17.23
2019-02-03T18:18:14.284Z,16.05
2019-02-03T18:20:43.158Z,16.52
2019-02-03T18:23:11.864Z,15.85
2019-02-03T18:25:42.295Z,16.40
2019-02-03T18:28:11.209Z,16.07
2019-02-03T18:30:40.204Z,17.15
2019-02-03T18:33:11.942Z,16.52
2019-02-03T18:35:41.344Z,17.42
2019-02-03T18:38:13.383Z,16.87
2019-02-03T18:40:42.374Z,15.05
2019-02-03T18:43:11.135Z,15.00
2019-02-03T18:45:40.524Z,14.23
2019-02-03T18:48:10.312Z,15.70
2019-02-03T18:50:38.994Z,16.52
2019-02-03T18:53:07.990Z,16.40
2019-02-03T18:55:45.392Z,14.87
2019-02-03T18:58:14.132Z,15.98
2019-02-03T19:00:42.785Z,15.40
2019-02-03T19:03:12.427Z,15.28
2019-02-03T19:05:46.399Z,16.20
2019-02-03T19:08:18.079Z,15.15
2019-02-03T19:10:47.562Z,16.65
2019-02-03T19:13:16.198Z,15.90
2019-02-03T19:15:46.566Z,17.62
2019-02-03T19:18:16.703Z,15.93
2019-02-03T19:20:47.027Z,18.12
2019-02-03T19:23:15.642Z,17.48
2019-02-03T19:25:44.331Z,15.78
2019-02-03T19:28:14.623Z,14.90
2019-02-03T19:30:43.193Z,16.90
2019-02-03T19:33:13.634Z,19.07
2019-02-03T19:35:43.783Z,18.42
2019-02-03T19:38:13.086Z,17.07
2019-02-03T19:40:45.516Z,17.50
2019-02-03T19:43:15.266Z,18.52
2019-02-03T19:45:45.576Z,17.00
2019-02-03T19:48:15.172Z,18.48
2019-02-03T19:50:46.463Z,18.05
2019-02-03T19:54:20.728Z,18.00
2019-02-03T19:56:51.365Z,18.85
2019-02-03T19:59:20.331Z,17.62
2019-02-03T20:01:50.458Z,18.02
2019-02-03T20:04:20.652Z,17.65
2019-02-03T20:06:49.248Z,17.75
2019-02-03T20:09:17.987Z,17.40
2019-02-03T20:11:47.391Z,16.45
2019-02-03T20:14:16.689Z,16.48
2019-02-03T20:16:45.251Z,17.90
2019-02-03T20:19:16.672Z,22.13
2019-02-03T20:21:47.267Z,17.17
2019-02-03T20:24:19.099Z,17.87
2019-02-03T20:26:47.644Z,16.65
2019-02-03T20:29:16.530Z,18.02
2019-02-03T20:32:04.641Z,16.87
2019-02-03T20:34:36.166Z,19.50
2019-02-03T20:37:06.670Z,18.32
2019-02-03T20:39:37.481Z,17.75
2019-02-03T20:42:10.025Z,16.60
2019-02-03T20:44:40.330Z,16.85
2019-02-03T20:47:12.203Z,17.12
2019-02-03T20:49:42.292Z,15.20
2019-02-03T20:52:10.950Z,17.35
2019-02-03T20:54:44.604Z,18.00
2019-02-03T20:58:51.347Z,19.80
2019-02-03T21:01:22.716Z,18.30
2019-02-03T21:03:53.603Z,17.45
2019-02-03T21:06:24.708Z,19.50
2019-02-03T21:08:58.037Z,17.67
2019-02-03T21:11:26.650Z,20.10
2019-02-03T21:29:27.734Z,22.22
2019-02-03T21:31:56.505Z,19.42
2019-02-03T21:34:25.146Z,19.20
2019-02-03T21:36:56.759Z,20.60
2019-02-03T21:39:25.328Z,19.10
2019-02-03T21:41:54.711Z,18.98
2019-02-03T21:44:25.241Z,19.67
2019-02-03T21:46:53.839Z,17.73
2019-02-03T21:49:24.038Z,17.90
2019-02-03T21:51:54.209Z,19.77
2019-02-03T21:54:33.029Z,18.35
2019-02-03T21:57:02.079Z,16.75
2019-02-03T21:59:33.874Z,17.10
2019-02-03T22:02:02.521Z,17.95
2019-02-03T22:04:31.191Z,19.42
2019-02-03T22:07:00.331Z,18.15
2019-02-03T22:09:28.958Z,17.20
2019-02-03T22:11:57.573Z,18.00
2019-02-03T22:14:26.166Z,18.65
2019-02-03T22:16:54.798Z,19.12
2019-02-03T22:19:23.421Z,17.92
2019-02-03T22:21:55.128Z,18.45
2019-02-03T22:24:26.168Z,17.30
2019-02-03T22:26:55.597Z,20.00
2019-02-03T22:29:25.491Z,18.42
2019-02-03T22:31:54.108Z,19.48
2019-02-03T22:34:24.397Z,18.48
2019-02-03T22:36:56.179Z,18.45
2019-02-03T22:39:28.729Z,19.27
2019-02-03T22:41:57.722Z,19.12
2019-02-03T22:44:26.394Z,21.25
2019-02-03T22:46:59.846Z,18.12
2019-02-03T22:49:29.983Z,19.62
2019-02-03T22:52:00.175Z,19.48
2019-02-03T22:54:29.390Z,19.15
2019-02-03T22:56:57.973Z,19.37
2019-02-03T22:59:26.613Z,19.00
2019-02-03T23:01:55.229Z,19.17
2019-02-03T23:04:24.136Z,20.08
2019-02-03T23:06:52.733Z,18.95
2019-02-03T23:09:28.561Z,18.45
2019-02-03T23:11:57.319Z,19.55
2019-02-03T23:14:26.034Z,19.40
2019-02-03T23:16:56.253Z,17.85
2019-02-03T23:19:25.441Z,20.35
2019-02-03T23:21:55.660Z,18.50
2019-02-03T23:24:24.257Z,19.48
2019-02-03T23:26:52.802Z,19.35
2019-02-03T23:29:21.471Z,18.30
2019-02-03T23:31:50.894Z,19.23
2019-02-03T23:34:19.565Z,20.08
2019-02-03T23:36:51.223Z,19.52
2019-02-03T23:39:19.841Z,18.85
2019-02-03T23:41:48.447Z,21.02
2019-02-03T23:44:17.066Z,19.60
2019-02-03T23:46:45.728Z,20.30
2019-02-03T23:49:14.379Z,19.65
2019-02-03T23:51:42.962Z,19.30
2019-02-03T23:54:11.705Z,20.25
2019-02-03T23:56:40.257Z,20.50
2019-02-03T23:59:09.489Z,23.00
